O' Neill, Nebraska
Current Conditions -  °F | °C
As of 1:15 PM on Thursday 27 Nov 2014 (Local Time) from KONL Reporting Station
Clear Clear  
Wind Chill: 17°   Ceiling: Unl
Heat Index: 27°   Visibility: 10mi
Dew Point: 16°   Wind: 13mph
Humidity: 61%   Direction: 150°SSE
Pressure: 30.22"   Gusts: 21mph
Location:  42.6164°N, 98.6183°W
Report Text: KONL 271915Z AUTO 15011G18KT 10SM CLR M03/M09 A3022 RMK AO2 T10261091
Loading
Personal Weather Stations






























Interactive Weather Map New forecast layout! Learn more

10-Day Weather Forecast

Advertisements
Track Severe Weather on mobile